createdAt,value
2022-08-26T00:00:21.093Z,16.22
2022-08-26T00:02:49.223Z,16.23
2022-08-26T00:05:17.329Z,16.20
2022-08-26T00:07:46.001Z,16.18
2022-08-26T00:10:14.077Z,16.14
2022-08-26T00:12:42.698Z,16.10
2022-08-26T00:15:13.603Z,16.08
2022-08-26T00:17:43.411Z,16.07
2022-08-26T00:20:14.098Z,16.05
2022-08-26T00:22:42.307Z,16.01
2022-08-26T00:25:12.164Z,16.00
2022-08-26T00:27:40.643Z,15.99
2022-08-26T00:30:11.934Z,16.02
2022-08-26T00:32:40.108Z,16.04
2022-08-26T00:35:13.867Z,16.06
2022-08-26T00:37:43.391Z,16.05
2022-08-26T00:40:16.623Z,16.04
2022-08-26T00:42:45.876Z,16.06
2022-08-26T00:45:15.300Z,16.07
2022-08-26T00:47:47.914Z,16.07
2022-08-26T00:50:19.706Z,16.05
2022-08-26T00:52:49.046Z,16.05
2022-08-26T00:55:23.125Z,16.05
2022-08-26T00:57:52.364Z,16.00
2022-08-26T01:00:23.983Z,16.02
2022-08-26T01:02:52.809Z,15.99
2022-08-26T01:05:22.179Z,16.01
2022-08-26T01:07:50.906Z,15.99
2022-08-26T01:10:22.344Z,15.97
2022-08-26T01:12:54.762Z,15.94
2022-08-26T01:15:26.134Z,15.89
2022-08-26T01:17:54.303Z,15.87
2022-08-26T01:20:30.155Z,15.85
2022-08-26T01:23:03.273Z,15.86
2022-08-26T01:25:34.908Z,15.85
2022-08-26T01:28:06.741Z,15.83
2022-08-26T01:30:36.532Z,15.82
2022-08-26T01:33:10.046Z,15.81
2022-08-26T01:35:39.577Z,15.78
2022-08-26T01:38:10.753Z,15.76
2022-08-26T01:40:43.895Z,15.73
2022-08-26T01:43:18.438Z,15.71
2022-08-26T01:45:48.757Z,15.67
2022-08-26T01:48:24.333Z,15.62
2022-08-26T01:50:53.940Z,15.58
2022-08-26T01:53:25.833Z,15.52
2022-08-26T01:55:58.953Z,15.48
2022-08-26T01:58:32.498Z,15.45
2022-08-26T02:01:00.981Z,15.44
2022-08-26T02:03:31.209Z,15.37
2022-08-26T02:06:04.654Z,15.37
2022-08-26T02:08:39.640Z,15.33
2022-08-26T02:11:08.121Z,15.32
2022-08-26T02:13:41.176Z,15.24
2022-08-26T02:16:11.822Z,15.23
2022-08-26T02:18:42.551Z,15.19
2022-08-26T02:21:12.126Z,15.14
2022-08-26T02:23:42.608Z,15.09
2022-08-26T02:26:17.902Z,15.07
2022-08-26T02:28:50.772Z,15.06
2022-08-26T02:31:19.120Z,15.01
2022-08-26T02:33:48.045Z,14.94
2022-08-26T02:36:21.126Z,14.96
2022-08-26T02:38:50.836Z,14.93
2022-08-26T02:41:20.148Z,14.89
2022-08-26T02:43:50.950Z,14.83
2022-08-26T02:46:21.530Z,14.80
2022-08-26T02:48:56.378Z,14.76
2022-08-26T02:51:24.665Z,14.75
2022-08-26T02:53:54.409Z,14.73
2022-08-26T02:56:23.501Z,14.72
2022-08-26T02:58:51.644Z,14.70
2022-08-26T03:01:26.587Z,14.65
2022-08-26T03:03:55.027Z,14.63
2022-08-26T03:06:24.336Z,14.62
2022-08-26T03:08:54.400Z,14.58
2022-08-26T03:11:23.665Z,14.58
2022-08-26T03:13:53.777Z,14.57
2022-08-26T03:16:22.002Z,14.52
2022-08-26T03:18:52.236Z,14.49
2022-08-26T03:21:21.438Z,14.50
2022-08-26T03:23:49.749Z,14.44
2022-08-26T03:26:19.611Z,14.46
2022-08-26T03:29:06.037Z,14.41
2022-08-26T03:31:34.449Z,14.41
2022-08-26T03:34:02.674Z,14.38
2022-08-26T03:36:31.020Z,14.37
2022-08-26T03:38:59.731Z,14.35
2022-08-26T03:41:29.164Z,14.34
2022-08-26T03:44:01.508Z,14.26
2022-08-26T03:46:31.557Z,14.22
2022-08-26T03:49:00.135Z,14.23
2022-08-26T03:51:28.757Z,14.19
2022-08-26T03:53:57.161Z,14.12
2022-08-26T03:56:25.298Z,14.13
2022-08-26T03:58:55.499Z,14.12
2022-08-26T04:01:24.093Z,14.11
2022-08-26T04:04:01.411Z,14.11
2022-08-26T04:06:31.045Z,14.04
2022-08-26T04:09:01.135Z,14.02
2022-08-26T04:11:32.145Z,14.03
2022-08-26T04:14:07.520Z,14.01
2022-08-26T04:16:35.847Z,14.03
2022-08-26T04:19:04.181Z,14.01
2022-08-26T04:21:32.676Z,14.00
2022-08-26T04:24:03.450Z,13.95
2022-08-26T04:26:37.020Z,13.92
2022-08-26T04:29:13.257Z,13.92
2022-08-26T04:31:41.578Z,13.91
2022-08-26T04:34:10.876Z,13.88
2022-08-26T04:36:39.359Z,13.87
2022-08-26T04:39:12.252Z,13.82
2022-08-26T04:41:40.671Z,13.81
2022-08-26T04:44:10.636Z,13.77
2022-08-26T04:46:39.767Z,13.78
2022-08-26T04:49:12.405Z,13.77
2022-08-26T04:51:40.733Z,13.73
2022-08-26T04:54:08.948Z,13.74
2022-08-26T04:56:39.763Z,13.73
2022-08-26T04:59:16.749Z,13.72
2022-08-26T05:01:47.930Z,13.70
2022-08-26T05:04:18.961Z,13.69
2022-08-26T05:06:47.595Z,13.66
2022-08-26T05:09:15.698Z,13.63
2022-08-26T05:11:43.750Z,13.65
2022-08-26T05:14:18.916Z,13.62
2022-08-26T05:16:47.742Z,13.60
2022-08-26T05:19:18.708Z,13.58
2022-08-26T05:21:47.833Z,13.57
2022-08-26T05:24:16.746Z,13.60
2022-08-26T05:26:45.335Z,13.56
2022-08-26T05:29:13.963Z,13.55
2022-08-26T05:31:43.579Z,13.58
2022-08-26T05:34:11.676Z,13.56
2022-08-26T05:36:40.229Z,13.58
2022-08-26T05:39:10.671Z,13.59
2022-08-26T05:41:41.130Z,13.58
2022-08-26T05:44:11.501Z,13.60
2022-08-26T05:46:41.283Z,13.66
2022-08-26T05:49:12.621Z,13.70
2022-08-26T05:51:41.936Z,13.71
2022-08-26T05:54:10.461Z,13.74
2022-08-26T05:56:39.226Z,13.80
2022-08-26T05:59:14.275Z,13.86
2022-08-26T06:01:43.144Z,13.90
2022-08-26T06:04:13.222Z,13.92
2022-08-26T06:06:42.635Z,13.99
2022-08-26T06:09:11.599Z,14.05
2022-08-26T06:11:40.513Z,14.11
2022-08-26T06:14:09.361Z,14.16
2022-08-26T06:16:40.893Z,14.24
2022-08-26T06:19:11.493Z,14.28
2022-08-26T06:21:42.987Z,14.32
2022-08-26T06:24:31.447Z,14.40
2022-08-26T06:27:01.616Z,14.50
2022-08-26T06:29:31.683Z,14.55
2022-08-26T06:32:00.279Z,14.59
2022-08-26T06:34:30.260Z,14.63
2022-08-26T06:37:02.458Z,14.70
2022-08-26T06:39:31.846Z,14.73
2022-08-26T06:42:00.498Z,14.80
2022-08-26T06:44:28.942Z,14.90
2022-08-26T06:46:57.006Z,14.93
2022-08-26T06:49:27.161Z,14.90
2022-08-26T06:51:58.632Z,14.98
2022-08-26T06:54:31.554Z,15.12
2022-08-26T06:57:01.171Z,15.33
2022-08-26T06:59:31.227Z,15.59
2022-08-26T07:01:59.527Z,15.76
2022-08-26T07:04:28.042Z,16.05
2022-08-26T07:06:56.736Z,16.29
2022-08-26T07:09:30.350Z,16.51
2022-08-26T07:11:58.971Z,16.79
2022-08-26T07:14:27.376Z,17.05
2022-08-26T07:16:55.927Z,17.25
2022-08-26T07:19:30.066Z,17.43
2022-08-26T07:21:59.072Z,17.68
2022-08-26T07:24:29.197Z,17.85
2022-08-26T07:27:00.722Z,17.92
2022-08-26T07:29:29.891Z,18.08
2022-08-26T07:31:58.064Z,18.14
2022-08-26T07:34:26.540Z,18.32
2022-08-26T07:36:55.293Z,18.32
2022-08-26T07:39:24.647Z,18.50
2022-08-26T07:41:54.419Z,18.15
2022-08-26T07:44:22.717Z,18.42
2022-08-26T07:46:53.457Z,18.67
2022-08-26T07:49:22.403Z,19.17
2022-08-26T07:51:51.377Z,19.27
2022-08-26T07:54:20.312Z,19.34
2022-08-26T07:56:56.981Z,19.43
2022-08-26T07:59:25.640Z,19.55
2022-08-26T08:01:54.193Z,19.85
2022-08-26T08:04:26.425Z,19.60
2022-08-26T08:06:56.091Z,19.43
2022-08-26T08:09:24.847Z,19.33
2022-08-26T08:11:54.118Z,20.04
2022-08-26T08:14:23.614Z,20.19
2022-08-26T08:16:54.735Z,20.25
2022-08-26T08:19:23.843Z,20.28
2022-08-26T08:21:52.168Z,20.64
2022-08-26T08:24:21.991Z,20.71
2022-08-26T08:26:50.482Z,20.72
2022-08-26T08:29:19.287Z,20.50
2022-08-26T08:31:56.759Z,20.30
2022-08-26T08:34:31.158Z,19.80
2022-08-26T08:36:59.595Z,19.79
2022-08-26T08:39:28.282Z,20.43
2022-08-26T08:42:31.496Z,20.71
2022-08-26T08:45:04.567Z,20.53
2022-08-26T08:47:38.655Z,20.81
2022-08-26T08:50:25.667Z,20.91
2022-08-26T08:53:01.954Z,21.12
2022-08-26T08:55:37.349Z,21.76
2022-08-26T08:58:10.086Z,21.57
2022-08-26T09:00:44.540Z,21.53
2022-08-26T09:03:27.944Z,21.67
2022-08-26T09:05:59.888Z,21.65
2022-08-26T09:08:35.197Z,21.65
2022-08-26T09:11:04.856Z,21.34
2022-08-26T09:13:35.289Z,21.52
2022-08-26T09:16:09.915Z,21.60
2022-08-26T09:18:52.777Z,21.40
2022-08-26T09:21:23.571Z,22.10
2022-08-26T09:23:55.686Z,22.22
2022-08-26T09:26:30.803Z,22.41
2022-08-26T09:29:02.673Z,22.35
2022-08-26T09:31:32.777Z,22.23
2022-08-26T09:34:13.117Z,22.35
2022-08-26T09:36:48.994Z,22.62
2022-08-26T09:39:28.413Z,22.16
2022-08-26T09:42:09.530Z,22.94
2022-08-26T09:44:55.804Z,22.73
2022-08-26T09:47:29.301Z,22.79
2022-08-26T09:50:04.590Z,22.95
2022-08-26T09:52:37.861Z,22.76
2022-08-26T09:55:13.866Z,22.72
2022-08-26T09:57:51.216Z,22.74
2022-08-26T10:00:32.875Z,22.44
2022-08-26T10:03:03.740Z,22.97
2022-08-26T10:05:40.794Z,23.37
2022-08-26T10:08:23.091Z,23.14
2022-08-26T10:10:53.414Z,23.04
2022-08-26T10:13:29.686Z,22.46
2022-08-26T10:16:05.605Z,22.67
2022-08-26T10:18:37.661Z,22.39
2022-08-26T10:21:11.379Z,22.44
2022-08-26T10:23:43.359Z,22.81
2022-08-26T10:26:17.508Z,22.61
2022-08-26T10:28:54.986Z,23.07
2022-08-26T10:31:30.289Z,22.82
2022-08-26T10:34:12.334Z,22.99
2022-08-26T10:37:15.699Z,23.30
2022-08-26T10:39:51.963Z,22.99
2022-08-26T10:42:31.080Z,22.66
2022-08-26T10:45:05.944Z,22.39
2022-08-26T10:47:42.677Z,21.74
2022-08-26T10:50:11.609Z,21.68
2022-08-26T10:52:56.406Z,21.82
2022-08-26T10:55:34.849Z,21.65
2022-08-26T10:58:26.467Z,21.60
2022-08-26T11:01:22.706Z,21.51
2022-08-26T11:04:01.309Z,21.43
2022-08-26T11:06:31.385Z,21.23
2022-08-26T11:09:02.232Z,21.24
2022-08-26T11:11:49.339Z,21.49
2022-08-26T11:14:58.863Z,22.05
2022-08-26T11:18:00.265Z,22.29
2022-08-26T11:20:42.104Z,22.46
2022-08-26T11:23:41.597Z,22.93
2022-08-26T11:26:30.045Z,23.08
2022-08-26T11:29:12.883Z,23.13
2022-08-26T11:31:57.506Z,23.11
2022-08-26T11:34:57.898Z,23.41
2022-08-26T11:37:33.895Z,23.53
2022-08-26T11:40:04.844Z,24.03
2022-08-26T11:42:41.031Z,23.77
2022-08-26T11:45:19.426Z,23.87
2022-08-26T11:47:49.498Z,23.80
2022-08-26T11:50:20.815Z,23.35
2022-08-26T11:52:59.186Z,23.29
2022-08-26T11:55:27.534Z,23.14
2022-08-26T11:58:00.860Z,23.23
2022-08-26T12:00:33.830Z,23.14
2022-08-26T12:03:09.281Z,22.66
2022-08-26T12:05:46.016Z,22.79
2022-08-26T12:08:18.441Z,23.51
2022-08-26T12:10:48.310Z,23.72
2022-08-26T12:13:26.518Z,24.01
2022-08-26T12:15:56.425Z,24.28
2022-08-26T12:18:28.938Z,24.55
2022-08-26T12:21:01.615Z,24.34
2022-08-26T12:23:41.440Z,24.25
2022-08-26T12:26:14.259Z,24.33
2022-08-26T12:28:47.304Z,24.17
2022-08-26T12:31:23.559Z,24.21
2022-08-26T12:33:53.049Z,24.76
2022-08-26T12:36:27.558Z,24.89
2022-08-26T12:38:58.436Z,24.94
2022-08-26T12:41:48.179Z,25.34
2022-08-26T12:44:53.785Z,25.32
2022-08-26T12:47:30.832Z,25.41
2022-08-26T12:50:17.560Z,25.15
2022-08-26T12:52:55.368Z,24.99
2022-08-26T12:55:26.115Z,24.60
2022-08-26T12:58:13.526Z,24.85
2022-08-26T13:00:45.245Z,25.00
2022-08-26T13:03:47.497Z,25.09
2022-08-26T13:06:27.948Z,24.98
2022-08-26T13:08:58.462Z,24.65
2022-08-26T13:11:29.086Z,24.80
2022-08-26T13:13:59.196Z,24.94
2022-08-26T13:16:29.515Z,24.82
2022-08-26T13:18:58.992Z,24.84
2022-08-26T13:21:30.003Z,24.89
2022-08-26T13:24:08.496Z,24.84
2022-08-26T13:26:36.863Z,24.37
2022-08-26T13:29:09.586Z,24.09
2022-08-26T13:31:42.085Z,23.94
2022-08-26T13:34:11.914Z,23.85
2022-08-26T13:36:40.367Z,23.72
2022-08-26T13:39:08.682Z,23.84
2022-08-26T13:41:37.287Z,23.86
2022-08-26T13:44:06.096Z,24.06
2022-08-26T13:46:34.430Z,24.00
2022-08-26T13:49:04.185Z,23.88
2022-08-26T13:51:33.365Z,23.91
2022-08-26T13:54:01.868Z,23.84
2022-08-26T13:56:31.210Z,23.72
2022-08-26T13:59:01.295Z,23.76
2022-08-26T14:01:31.166Z,23.75
2022-08-26T14:04:00.370Z,23.74
2022-08-26T14:06:31.507Z,23.65
2022-08-26T14:08:59.934Z,23.48
2022-08-26T14:11:29.067Z,23.33
2022-08-26T14:14:05.393Z,23.16
2022-08-26T14:16:37.211Z,23.18
2022-08-26T14:19:25.355Z,23.11
2022-08-26T14:21:55.139Z,23.13
2022-08-26T14:24:23.796Z,22.96
2022-08-26T14:26:51.905Z,22.86
2022-08-26T14:29:19.986Z,22.85
2022-08-26T14:31:48.455Z,22.75
2022-08-26T14:34:16.746Z,22.85
2022-08-26T14:36:44.919Z,22.84
2022-08-26T14:39:14.794Z,22.83
2022-08-26T14:41:54.584Z,22.94
2022-08-26T14:44:25.649Z,22.70
2022-08-26T14:46:54.698Z,22.79
2022-08-26T14:49:24.157Z,22.88
2022-08-26T14:51:52.286Z,22.83
2022-08-26T14:54:21.496Z,22.87
2022-08-26T14:56:51.800Z,23.05
2022-08-26T14:59:22.410Z,23.11
2022-08-26T15:01:51.071Z,23.22
2022-08-26T15:04:19.567Z,23.20
2022-08-26T15:06:47.995Z,23.21
2022-08-26T15:09:17.862Z,23.27
2022-08-26T15:11:48.019Z,23.28
2022-08-26T15:14:19.016Z,23.25
2022-08-26T15:16:49.622Z,23.14
2022-08-26T15:19:18.057Z,23.06
2022-08-26T15:21:47.443Z,23.05
2022-08-26T15:24:17.298Z,23.14
2022-08-26T15:26:47.738Z,23.23
2022-08-26T15:29:16.075Z,23.19
2022-08-26T15:31:44.347Z,23.19
2022-08-26T15:34:16.806Z,23.06
2022-08-26T15:36:47.029Z,23.13
2022-08-26T15:39:16.603Z,23.24
2022-08-26T15:41:45.059Z,23.28
2022-08-26T15:44:17.855Z,23.32
2022-08-26T15:46:46.607Z,23.43
2022-08-26T15:49:17.807Z,23.45
2022-08-26T15:51:50.466Z,23.53
2022-08-26T15:54:21.216Z,23.53
2022-08-26T15:56:52.161Z,23.56
2022-08-26T15:59:23.608Z,23.66
2022-08-26T16:01:52.310Z,23.67
2022-08-26T16:04:21.047Z,23.68
2022-08-26T16:06:52.247Z,23.63
2022-08-26T16:09:24.346Z,23.60
2022-08-26T16:11:52.823Z,23.75
2022-08-26T16:14:23.037Z,23.64
2022-08-26T16:16:51.697Z,23.66
2022-08-26T16:19:20.006Z,23.60
2022-08-26T16:21:48.352Z,23.58
2022-08-26T16:24:16.591Z,23.48
2022-08-26T16:26:45.726Z,23.25
2022-08-26T16:29:16.184Z,23.16
2022-08-26T16:31:45.620Z,23.25
2022-08-26T16:34:13.728Z,23.35
2022-08-26T16:36:42.030Z,23.30
2022-08-26T16:39:12.558Z,23.27
2022-08-26T16:41:42.445Z,23.24
2022-08-26T16:44:12.003Z,23.25
2022-08-26T16:46:41.329Z,23.13
2022-08-26T16:49:11.066Z,23.00
2022-08-26T16:51:39.345Z,23.00
2022-08-26T16:54:09.343Z,22.93
2022-08-26T16:56:38.581Z,22.96
2022-08-26T16:59:10.599Z,22.99
2022-08-26T17:01:38.983Z,22.91
2022-08-26T17:04:07.270Z,22.79
2022-08-26T17:06:37.001Z,22.86
2022-08-26T17:09:05.570Z,22.83
2022-08-26T17:11:34.421Z,22.82
2022-08-26T17:14:03.084Z,22.86
2022-08-26T17:16:31.582Z,22.86
2022-08-26T17:19:00.942Z,22.86
2022-08-26T17:21:29.953Z,22.84
2022-08-26T17:23:59.488Z,22.79
2022-08-26T17:26:27.904Z,22.78
2022-08-26T17:28:56.353Z,22.68
2022-08-26T17:31:25.212Z,22.62
2022-08-26T17:33:54.466Z,22.55
2022-08-26T17:36:27.559Z,22.56
2022-08-26T17:38:58.003Z,22.60
2022-08-26T17:41:28.170Z,22.50
2022-08-26T17:43:56.617Z,22.46
2022-08-26T17:46:25.145Z,22.38
2022-08-26T17:48:53.380Z,22.34
2022-08-26T17:51:23.419Z,22.30
2022-08-26T17:53:52.089Z,22.32
2022-08-26T17:56:24.217Z,22.35
2022-08-26T17:58:55.051Z,22.30
2022-08-26T18:01:27.094Z,22.27
2022-08-26T18:04:00.254Z,22.31
2022-08-26T18:06:32.385Z,22.24
2022-08-26T18:09:02.618Z,22.23
2022-08-26T18:11:31.976Z,22.13
2022-08-26T18:14:02.080Z,22.16
2022-08-26T18:16:31.771Z,22.17
2022-08-26T18:19:01.337Z,22.11
2022-08-26T18:21:29.577Z,22.15
2022-08-26T18:23:58.499Z,22.21
2022-08-26T18:26:29.453Z,22.15
2022-08-26T18:28:58.712Z,22.10
2022-08-26T18:31:28.973Z,22.09
2022-08-26T18:33:57.759Z,22.08
2022-08-26T18:36:27.887Z,22.08
2022-08-26T18:38:57.182Z,22.04
2022-08-26T18:41:28.958Z,22.00
2022-08-26T18:43:59.109Z,22.05
2022-08-26T18:46:29.926Z,22.08
2022-08-26T18:48:58.913Z,22.07
2022-08-26T18:51:29.715Z,22.03
2022-08-26T18:53:58.623Z,21.98
2022-08-26T18:56:27.641Z,21.94
2022-08-26T18:58:55.984Z,21.96
2022-08-26T19:01:27.345Z,21.93
2022-08-26T19:03:58.034Z,21.88
2022-08-26T19:06:28.262Z,21.91
2022-08-26T19:08:58.151Z,21.87
2022-08-26T19:11:32.476Z,21.84
2022-08-26T19:14:13.086Z,21.88
2022-08-26T19:16:42.507Z,21.89
2022-08-26T19:19:12.514Z,21.92
2022-08-26T19:21:41.391Z,21.90
2022-08-26T19:24:15.520Z,21.89
2022-08-26T19:26:45.202Z,21.88
2022-08-26T19:29:15.464Z,21.84
2022-08-26T19:31:44.512Z,21.83
2022-08-26T19:34:18.236Z,21.78
2022-08-26T19:36:49.312Z,21.63
2022-08-26T19:39:19.094Z,21.58
2022-08-26T19:41:47.574Z,21.58
2022-08-26T19:44:38.982Z,21.60
2022-08-26T19:47:09.546Z,21.59
2022-08-26T19:49:40.569Z,21.61
2022-08-26T19:52:09.084Z,21.63
2022-08-26T19:54:37.408Z,21.61
2022-08-26T19:57:06.164Z,21.59
2022-08-26T19:59:36.223Z,21.54
2022-08-26T20:02:08.508Z,21.52
2022-08-26T20:04:40.881Z,21.49
2022-08-26T20:07:11.399Z,21.48
2022-08-26T20:09:41.952Z,21.48
2022-08-26T20:12:12.452Z,21.48
2022-08-26T20:14:45.176Z,21.38
2022-08-26T20:17:14.588Z,21.38
2022-08-26T20:20:02.462Z,21.36
2022-08-26T20:22:31.013Z,21.35
2022-08-26T20:24:59.648Z,21.23
2022-08-26T20:27:37.889Z,21.25
2022-08-26T20:30:09.406Z,21.22
2022-08-26T20:32:40.852Z,21.24
2022-08-26T20:35:14.907Z,21.15
2022-08-26T20:37:44.203Z,21.15
2022-08-26T20:40:14.706Z,21.14
2022-08-26T20:42:43.393Z,21.11
2022-08-26T20:45:12.489Z,21.02
2022-08-26T20:47:41.149Z,21.01
2022-08-26T20:50:11.259Z,20.93
2022-08-26T20:52:39.763Z,20.95
2022-08-26T20:55:08.785Z,20.94
2022-08-26T20:57:39.039Z,20.89
2022-08-26T21:00:08.550Z,20.80
2022-08-26T21:02:38.892Z,20.74
2022-08-26T21:05:10.982Z,20.74
2022-08-26T21:07:39.516Z,20.69
2022-08-26T21:10:08.780Z,20.63
2022-08-26T21:12:37.319Z,20.58
2022-08-26T21:15:07.523Z,20.50
2022-08-26T21:17:37.646Z,20.52
2022-08-26T21:20:06.367Z,20.48
2022-08-26T21:22:36.449Z,20.48
2022-08-26T21:25:05.686Z,20.43
2022-08-26T21:27:35.707Z,20.44
2022-08-26T21:30:04.915Z,20.47
2022-08-26T21:32:33.585Z,20.42
2022-08-26T21:35:01.983Z,20.39
2022-08-26T21:37:31.316Z,20.35
2022-08-26T21:40:03.589Z,20.31
2022-08-26T21:42:34.425Z,20.29
2022-08-26T21:45:03.927Z,20.15
2022-08-26T21:47:32.806Z,20.20
2022-08-26T21:50:01.286Z,20.19
2022-08-26T21:52:29.889Z,20.14
2022-08-26T21:55:01.053Z,20.12
2022-08-26T21:57:30.165Z,20.03
2022-08-26T21:59:58.551Z,20.00
2022-08-26T22:02:26.800Z,19.98
2022-08-26T22:04:56.493Z,19.94
2022-08-26T22:07:24.772Z,19.87
2022-08-26T22:09:52.977Z,19.77
2022-08-26T22:12:22.706Z,19.78
2022-08-26T22:14:50.922Z,19.75
2022-08-26T22:17:20.130Z,19.72
2022-08-26T22:19:48.293Z,19.67
2022-08-26T22:22:16.917Z,19.60
2022-08-26T22:24:45.065Z,19.61
2022-08-26T22:27:14.401Z,19.60
2022-08-26T22:29:43.925Z,19.53
2022-08-26T22:32:12.213Z,19.47
2022-08-26T22:34:41.194Z,19.41
2022-08-26T22:37:09.571Z,19.37
2022-08-26T22:39:37.767Z,19.33
2022-08-26T22:42:05.995Z,19.26
2022-08-26T22:44:36.597Z,19.22
2022-08-26T22:47:31.369Z,19.19
2022-08-26T22:50:01.320Z,19.16
2022-08-26T22:52:29.468Z,19.11
2022-08-26T22:54:57.589Z,19.08
2022-08-26T22:57:29.182Z,19.02
2022-08-26T22:59:57.441Z,19.03
2022-08-26T23:02:25.512Z,19.00
2022-08-26T23:04:55.085Z,18.91
2022-08-26T23:07:23.228Z,18.86
2022-08-26T23:09:51.339Z,18.84
2022-08-26T23:12:20.565Z,18.79
2022-08-26T23:14:49.040Z,18.72
2022-08-26T23:17:17.201Z,18.56
2022-08-26T23:19:45.286Z,18.59
2022-08-26T23:22:16.955Z,18.47
2022-08-26T23:24:45.310Z,18.48
2022-08-26T23:27:13.414Z,18.47
2022-08-26T23:29:41.702Z,18.47
2022-08-26T23:32:10.277Z,18.50
2022-08-26T23:34:55.978Z,18.46
2022-08-26T23:37:26.452Z,18.38
2022-08-26T23:39:55.173Z,18.39
2022-08-26T23:42:23.446Z,18.38
2022-08-26T23:44:52.644Z,18.35
2022-08-26T23:47:21.252Z,18.27
2022-08-26T23:49:49.313Z,18.27
2022-08-26T23:52:40.230Z,18.28
2022-08-26T23:55:10.802Z,18.22
2022-08-26T23:57:39.499Z,18.21
